Time;durP1;ratioP1;P1;durP2;ratioP2;P2;SDS_P1;SDS_P2;PMS_P1;PMS_P2;Temp;Humidity;BMP_temperature;BMP_pressure;BME280_temperature;BME280_humidity;BME280_pressure;Samples;Min_cycle;Max_cycle;Signal;HPM_P1;HPM_P2
2022/03/30 00:01:04;;;;;;;24.48;12.80;;;;;;;;;;5082069;28;20043;-68
2022/03/30 00:03:31;;;;;;;25.33;13.27;;;;;;;;;;5091759;28;20059;-68
2022/03/30 00:05:58;;;;;;;25.25;13.75;;;;;;;;;;5090854;28;20048;-68
2022/03/30 00:08:24;;;;;;;20.90;13.43;;;;;;;;;;5091739;28;20044;-67
2022/03/30 00:10:51;;;;;;;24.50;12.80;;;;;;;;;;5090547;28;20120;-68
2022/03/30 00:13:18;;;;;;;26.50;14.30;;;;;;;;;;5091660;28;20120;-67
2022/03/30 00:15:44;;;;;;;21.65;13.40;;;;;;;;;;5071958;28;20503;-68
2022/03/30 00:18:11;;;;;;;23.65;13.05;;;;;;;;;;5071763;28;20051;-68
2022/03/30 00:20:38;;;;;;;22.35;13.88;;;;;;;;;;5071443;28;20117;-68
2022/03/30 00:23:05;;;;;;;22.40;13.02;;;;;;;;;;5053651;28;20075;-68
2022/03/30 00:25:32;;;;;;;26.02;14.88;;;;;;;;;;5053911;28;20059;-68
2022/03/30 00:27:59;;;;;;;24.30;14.15;;;;;;;;;;5070282;28;20395;-68
2022/03/30 00:30:26;;;;;;;29.67;16.08;;;;;;;;;;5053506;28;20506;-68
2022/03/30 00:32:52;;;;;;;30.63;13.60;;;;;;;;;;5071183;28;20106;-70
2022/03/30 00:35:19;;;;;;;27.27;14.73;;;;;;;;;;5070209;28;20445;-67
2022/03/30 00:37:46;;;;;;;30.80;16.02;;;;;;;;;;5053926;28;20048;-67
2022/03/30 00:40:14;;;;;;;26.42;14.82;;;;;;;;;;5071454;28;20048;-67
2022/03/30 00:42:41;;;;;;;24.67;15.55;;;;;;;;;;5053355;28;20044;-68
2022/03/30 00:45:14;;;;;;;26.30;15.65;;;;;;;;;;5053521;28;20552;-68
2022/03/30 00:47:41;;;;;;;28.75;15.95;;;;;;;;;;5053930;28;20052;-68
2022/03/30 00:50:09;;;;;;;36.38;17.23;;;;;;;;;;5053537;28;20052;-67
2022/03/30 00:55:08;;;;;;;26.13;15.43;;;;;;;;;;5098693;28;20117;-68
2022/03/30 00:57:36;;;;;;;24.40;15.77;;;;;;;;;;5077660;28;20048;-67
2022/03/30 01:00:08;;;;;;;33.17;16.33;;;;;;;;;;5095221;28;20058;-67
2022/03/30 01:02:39;;;;;;;23.58;15.23;;;;;;;;;;5094941;28;20044;-67
2022/03/30 01:05:07;;;;;;;26.10;15.18;;;;;;;;;;5095271;28;20097;-67
2022/03/30 01:07:33;;;;;;;24.48;15.30;;;;;;;;;;5094944;28;20530;-67
2022/03/30 01:10:02;;;;;;;25.83;16.05;;;;;;;;;;5095275;28;20460;-67
2022/03/30 01:12:29;;;;;;;23.63;15.32;;;;;;;;;;5076971;28;20048;-66
2022/03/30 01:14:56;;;;;;;21.58;14.85;;;;;;;;;;5076991;28;20056;-67
2022/03/30 01:17:23;;;;;;;26.52;16.83;;;;;;;;;;5093757;28;20048;-67
2022/03/30 01:19:50;;;;;;;24.48;14.88;;;;;;;;;;5108068;28;20051;-66
2022/03/30 01:22:16;;;;;;;23.40;15.60;;;;;;;;;;5114847;28;20048;-67
2022/03/30 01:24:43;;;;;;;34.25;17.50;;;;;;;;;;5115179;28;20044;-66
2022/03/30 01:27:10;;;;;;;27.23;15.75;;;;;;;;;;5115200;28;20039;-67
2022/03/30 01:32:25;;;;;;;25.05;16.58;;;;;;;;;;5114770;28;20047;-67
2022/03/30 01:34:57;;;;;;;24.10;16.48;;;;;;;;;;5114724;28;20093;-67
2022/03/30 01:37:26;;;;;;;23.58;16.42;;;;;;;;;;5114984;28;20043;-66
2022/03/30 01:39:57;;;;;;;25.02;15.85;;;;;;;;;;5114638;28;20052;-67
2022/03/30 01:42:24;;;;;;;26.25;15.40;;;;;;;;;;5114746;28;20051;-67
2022/03/30 01:44:52;;;;;;;25.85;16.33;;;;;;;;;;5114727;28;20093;-67
2022/03/30 01:47:19;;;;;;;31.02;17.73;;;;;;;;;;5114448;28;20048;-67
2022/03/30 01:49:46;;;;;;;29.90;17.63;;;;;;;;;;5114387;28;20554;-66
2022/03/30 01:52:15;;;;;;;25.27;16.52;;;;;;;;;;5114269;28;20399;-68
2022/03/30 01:54:42;;;;;;;27.25;16.60;;;;;;;;;;5114319;28;20055;-67
2022/03/30 01:57:12;;;;;;;20.65;15.35;;;;;;;;;;5114464;28;20101;-67
2022/03/30 01:59:40;;;;;;;27.15;17.17;;;;;;;;;;5114357;28;20047;-67
2022/03/30 02:02:07;;;;;;;25.73;17.02;;;;;;;;;;5114327;28;20059;-67
2022/03/30 02:04:37;;;;;;;25.50;16.40;;;;;;;;;;5114264;28;20048;-67
2022/03/30 02:07:04;;;;;;;27.15;18.58;;;;;;;;;;5113774;28;20097;-67
2022/03/30 02:09:32;;;;;;;26.42;16.52;;;;;;;;;;5113976;28;20055;-67
2022/03/30 02:11:59;;;;;;;24.27;16.95;;;;;;;;;;5114089;28;20073;-67
2022/03/30 02:14:26;;;;;;;29.23;17.38;;;;;;;;;;5113852;28;20054;-67
2022/03/30 02:16:53;;;;;;;32.55;17.75;;;;;;;;;;5114497;28;20047;-66
2022/03/30 02:19:19;;;;;;;26.40;16.48;;;;;;;;;;5114050;28;20104;-68
2022/03/30 02:21:46;;;;;;;28.38;17.85;;;;;;;;;;5113749;28;20058;-67
2022/03/30 02:24:13;;;;;;;28.23;17.23;;;;;;;;;;5113735;28;20047;-67
2022/03/30 02:26:39;;;;;;;28.63;18.02;;;;;;;;;;5113863;28;20232;-67
2022/03/30 02:29:06;;;;;;;30.40;17.35;;;;;;;;;;5113409;28;20055;-68
2022/03/30 02:31:34;;;;;;;26.77;17.17;;;;;;;;;;5113861;28;20051;-66
2022/03/30 02:34:01;;;;;;;27.67;17.27;;;;;;;;;;5113676;28;20048;-67
2022/03/30 02:36:27;;;;;;;26.92;17.15;;;;;;;;;;5113923;28;20040;-67
2022/03/30 02:38:55;;;;;;;29.08;16.60;;;;;;;;;;5113616;28;20055;-67
2022/03/30 02:41:22;;;;;;;22.95;16.73;;;;;;;;;;5113380;28;20097;-66
2022/03/30 02:43:49;;;;;;;24.38;16.95;;;;;;;;;;5112519;28;20104;-67
2022/03/30 02:46:16;;;;;;;24.88;17.63;;;;;;;;;;5113561;28;20096;-67
2022/03/30 02:48:43;;;;;;;26.75;17.00;;;;;;;;;;5113327;28;20394;-67
2022/03/30 02:51:10;;;;;;;26.73;18.30;;;;;;;;;;5113231;28;20051;-66
2022/03/30 02:53:37;;;;;;;26.25;17.95;;;;;;;;;;5113137;28;20462;-67
2022/03/30 02:56:04;;;;;;;31.00;19.50;;;;;;;;;;5113159;28;20048;-66
2022/03/30 02:58:32;;;;;;;28.20;17.33;;;;;;;;;;5113389;28;20051;-68
2022/03/30 03:00:58;;;;;;;28.38;19.20;;;;;;;;;;5113251;28;20529;-67
2022/03/30 03:03:25;;;;;;;30.48;17.40;;;;;;;;;;5113161;28;20083;-67
2022/03/30 03:05:52;;;;;;;30.73;18.55;;;;;;;;;;5113101;28;20059;-67
2022/03/30 03:08:19;;;;;;;27.65;16.65;;;;;;;;;;5112904;28;20516;-67
2022/03/30 03:10:46;;;;;;;26.73;16.38;;;;;;;;;;5112732;28;20051;-67
2022/03/30 03:13:16;;;;;;;27.25;15.32;;;;;;;;;;5112822;28;20512;-67
2022/03/30 03:15:44;;;;;;;28.58;17.27;;;;;;;;;;5113137;28;20146;-67
2022/03/30 03:18:18;;;;;;;31.65;17.38;;;;;;;;;;5112193;28;20082;-66
2022/03/30 03:20:46;;;;;;;28.48;17.20;;;;;;;;;;5112628;28;20054;-68
2022/03/30 03:23:13;;;;;;;29.90;18.65;;;;;;;;;;5113054;28;20054;-67
2022/03/30 03:25:40;;;;;;;25.98;18.25;;;;;;;;;;5112903;28;20395;-67
2022/03/30 03:28:08;;;;;;;30.35;18.63;;;;;;;;;;5112556;28;20078;-67
2022/03/30 03:30:36;;;;;;;28.08;17.58;;;;;;;;;;5112983;28;20047;-67
2022/03/30 03:33:03;;;;;;;30.38;18.70;;;;;;;;;;5112536;28;20100;-67
2022/03/30 03:35:30;;;;;;;31.38;18.90;;;;;;;;;;5112390;28;20054;-67
2022/03/30 03:37:57;;;;;;;30.30;18.83;;;;;;;;;;5112493;28;20148;-67
2022/03/30 03:40:25;;;;;;;28.27;18.13;;;;;;;;;;5112722;28;20058;-67
2022/03/30 03:42:51;;;;;;;32.30;19.23;;;;;;;;;;5112410;28;20660;-67
2022/03/30 03:45:18;;;;;;;27.45;18.00;;;;;;;;;;5112578;28;20047;-67
2022/03/30 03:47:47;;;;;;;25.98;17.17;;;;;;;;;;5112122;28;20097;-66
2022/03/30 03:50:14;;;;;;;31.58;17.50;;;;;;;;;;5094516;28;20072;-67
2022/03/30 03:52:41;;;;;;;29.00;18.20;;;;;;;;;;5093973;28;20073;-66
2022/03/30 03:55:08;;;;;;;27.48;17.80;;;;;;;;;;5112304;28;20047;-66
2022/03/30 03:57:38;;;;;;;31.13;18.70;;;;;;;;;;5112083;28;20502;-68
2022/03/30 04:00:05;;;;;;;26.70;17.70;;;;;;;;;;5092364;28;20128;-67
2022/03/30 04:02:32;;;;;;;31.73;17.90;;;;;;;;;;5075021;28;20451;-67
2022/03/30 04:04:59;;;;;;;31.15;18.33;;;;;;;;;;5091866;28;20044;-66
2022/03/30 04:07:26;;;;;;;27.30;17.42;;;;;;;;;;5091921;28;20043;-68
2022/03/30 04:09:53;;;;;;;29.35;17.77;;;;;;;;;;5110647;28;20060;-67
2022/03/30 04:12:19;;;;;;;28.90;18.88;;;;;;;;;;5111901;28;20517;-67
2022/03/30 04:14:46;;;;;;;27.40;19.27;;;;;;;;;;5094000;28;20101;-66
2022/03/30 04:17:12;;;;;;;29.17;19.02;;;;;;;;;;5112055;28;20055;-67
2022/03/30 04:19:39;;;;;;;29.27;18.75;;;;;;;;;;5112631;28;20124;-67
2022/03/30 04:22:06;;;;;;;27.05;16.65;;;;;;;;;;5112015;28;20109;-66
2022/03/30 04:24:32;;;;;;;27.92;18.92;;;;;;;;;;5111967;28;20051;-67
2022/03/30 04:26:59;;;;;;;30.38;18.63;;;;;;;;;;5111246;28;20043;-68
2022/03/30 04:29:26;;;;;;;25.00;18.13;;;;;;;;;;5112070;28;20044;-67
2022/03/30 04:31:52;;;;;;;30.17;20.20;;;;;;;;;;5115946;28;20047;-66
2022/03/30 04:34:19;;;;;;;28.08;18.38;;;;;;;;;;5115336;28;20044;-68
2022/03/30 04:36:45;;;;;;;27.63;18.67;;;;;;;;;;5115983;28;20052;-67
2022/03/30 04:39:12;;;;;;;29.58;19.08;;;;;;;;;;5115748;28;20116;-66
2022/03/30 04:41:39;;;;;;;28.35;18.10;;;;;;;;;;5115893;28;20457;-66
2022/03/30 04:44:06;;;;;;;33.80;19.42;;;;;;;;;;5115682;28;20051;-67
2022/03/30 04:46:32;;;;;;;31.13;17.45;;;;;;;;;;5108808;28;20510;-66
2022/03/30 04:48:59;;;;;;;28.33;18.15;;;;;;;;;;5095537;28;20044;-68
2022/03/30 04:51:26;;;;;;;34.67;18.17;;;;;;;;;;5095501;28;20044;-67
2022/03/30 04:53:52;;;;;;;28.70;18.63;;;;;;;;;;5095132;28;20047;-66
2022/03/30 04:56:19;;;;;;;32.22;19.15;;;;;;;;;;5095810;28;20101;-67
2022/03/30 04:58:46;;;;;;;30.95;17.10;;;;;;;;;;5095323;28;20048;-68
2022/03/30 05:01:12;;;;;;;35.53;21.00;;;;;;;;;;5095116;28;20211;-67
2022/03/30 05:03:39;;;;;;;31.77;19.95;;;;;;;;;;5095002;28;20131;-66
2022/03/30 05:06:06;;;;;;;32.17;19.13;;;;;;;;;;5095188;28;20122;-67
2022/03/30 05:08:33;;;;;;;34.55;20.52;;;;;;;;;;5095261;28;20055;-66
2022/03/30 05:10:59;;;;;;;34.45;21.02;;;;;;;;;;5095525;28;20121;-67
2022/03/30 05:13:26;;;;;;;35.03;20.45;;;;;;;;;;5094913;28;20051;-67
2022/03/30 05:15:53;;;;;;;30.10;22.45;;;;;;;;;;5095573;28;20448;-67
2022/03/30 05:18:20;;;;;;;36.42;22.52;;;;;;;;;;5095131;28;20056;-67
2022/03/30 05:20:46;;;;;;;39.88;23.38;;;;;;;;;;5110426;28;20048;-67
2022/03/30 05:23:13;;;;;;;39.42;23.45;;;;;;;;;;5114846;28;20055;-67
2022/03/30 05:25:40;;;;;;;41.88;24.17;;;;;;;;;;5115426;28;20270;-66
2022/03/30 05:28:06;;;;;;;38.35;24.48;;;;;;;;;;5115215;28;20050;-66
2022/03/30 05:30:35;;;;;;;40.65;24.88;;;;;;;;;;5115403;28;20051;-66
2022/03/30 05:33:01;;;;;;;38.95;26.15;;;;;;;;;;5114904;28;20048;-66
2022/03/30 05:35:28;;;;;;;44.75;26.90;;;;;;;;;;5114616;28;20048;-67
2022/03/30 05:37:55;;;;;;;45.03;27.35;;;;;;;;;;5114636;28;20039;-67
2022/03/30 05:40:22;;;;;;;54.70;30.15;;;;;;;;;;5114646;28;20116;-66
2022/03/30 05:42:48;;;;;;;44.75;30.17;;;;;;;;;;5113622;28;20048;-66
2022/03/30 05:45:15;;;;;;;51.33;32.50;;;;;;;;;;5114798;28;20445;-66
2022/03/30 05:47:42;;;;;;;55.58;32.30;;;;;;;;;;5114761;28;20124;-66
2022/03/30 05:50:09;;;;;;;55.22;32.05;;;;;;;;;;5114683;28;20062;-67
2022/03/30 05:52:37;;;;;;;58.03;33.30;;;;;;;;;;5114274;28;20066;-66
2022/03/30 05:55:04;;;;;;;54.03;31.98;;;;;;;;;;5114310;28;20051;-66
2022/03/30 05:57:31;;;;;;;56.55;32.75;;;;;;;;;;5114329;28;20048;-66
2022/03/30 05:59:58;;;;;;;50.47;32.40;;;;;;;;;;5112732;28;20050;-65
2022/03/30 06:02:25;;;;;;;59.53;33.25;;;;;;;;;;5112149;28;20348;-65
2022/03/30 06:04:53;;;;;;;57.00;32.78;;;;;;;;;;5112270;28;20051;-65
2022/03/30 06:07:20;;;;;;;61.70;33.05;;;;;;;;;;5112065;28;20044;-65
2022/03/30 06:09:47;;;;;;;50.03;31.15;;;;;;;;;;5112148;28;20131;-65
2022/03/30 06:12:15;;;;;;;52.30;30.65;;;;;;;;;;5112030;28;20048;-65
2022/03/30 06:14:42;;;;;;;59.70;31.58;;;;;;;;;;5077011;28;20092;-65
2022/03/30 06:17:09;;;;;;;53.05;29.80;;;;;;;;;;5112205;28;20051;-65
2022/03/30 06:19:36;;;;;;;55.78;29.25;;;;;;;;;;5094395;28;20047;-65
2022/03/30 06:22:05;;;;;;;51.88;28.50;;;;;;;;;;5111839;28;20047;-65
2022/03/30 06:24:37;;;;;;;50.42;29.15;;;;;;;;;;5111709;28;20058;-65
2022/03/30 06:27:04;;;;;;;51.92;28.23;;;;;;;;;;5093694;28;20060;-66
2022/03/30 06:29:35;;;;;;;48.55;27.88;;;;;;;;;;5111924;28;20047;-65
2022/03/30 06:32:02;;;;;;;51.17;28.85;;;;;;;;;;5112034;28;20047;-65
2022/03/30 06:34:30;;;;;;;49.50;27.33;;;;;;;;;;5111986;28;20441;-65
2022/03/30 06:36:56;;;;;;;50.30;28.70;;;;;;;;;;5111628;28;20543;-64
2022/03/30 06:39:23;;;;;;;45.70;27.33;;;;;;;;;;5111294;28;20081;-65
2022/03/30 06:41:50;;;;;;;50.88;26.23;;;;;;;;;;5111498;28;20047;-65
2022/03/30 06:44:17;;;;;;;50.85;26.17;;;;;;;;;;5111631;28;20047;-65
2022/03/30 06:46:44;;;;;;;47.20;27.08;;;;;;;;;;5111285;28;20055;-64
2022/03/30 06:49:10;;;;;;;42.72;26.38;;;;;;;;;;5111554;28;20055;-65
2022/03/30 06:51:37;;;;;;;54.10;31.10;;;;;;;;;;5111113;28;20051;-66
2022/03/30 06:54:04;;;;;;;55.50;32.42;;;;;;;;;;5111129;28;20120;-65
2022/03/30 06:56:31;;;;;;;63.75;33.47;;;;;;;;;;5111428;28;20093;-64
2022/03/30 06:58:58;;;;;;;57.90;33.15;;;;;;;;;;5111260;28;20058;-64
2022/03/30 07:01:30;;;;;;;51.25;30.35;;;;;;;;;;5110898;28;20087;-73
2022/03/30 07:03:57;;;;;;;50.60;30.40;;;;;;;;;;5110923;28;20054;-65
2022/03/30 07:06:24;;;;;;;67.60;32.65;;;;;;;;;;5110561;28;20100;-64
2022/03/30 07:11:36;;;;;;;57.72;32.60;;;;;;;;;;5105576;28;20485;-64
2022/03/30 07:14:02;;;;;;;57.55;33.17;;;;;;;;;;5111767;28;20058;-60
2022/03/30 07:16:29;;;;;;;59.92;32.50;;;;;;;;;;5107443;28;20058;-71
2022/03/30 07:18:56;;;;;;;63.95;35.97;;;;;;;;;;5106857;28;20104;-65
2022/03/30 07:21:24;;;;;;;60.80;34.60;;;;;;;;;;5111940;28;20501;-64
2022/03/30 07:23:51;;;;;;;60.03;33.95;;;;;;;;;;5112326;28;20050;-63
2022/03/30 07:26:20;;;;;;;60.13;33.60;;;;;;;;;;5112366;28;20116;-64
2022/03/30 07:28:49;;;;;;;61.33;33.38;;;;;;;;;;5112322;28;20047;-65
2022/03/30 07:31:16;;;;;;;58.42;32.67;;;;;;;;;;5112245;28;20047;-71
2022/03/30 07:33:43;;;;;;;62.35;33.40;;;;;;;;;;5093354;28;20043;-74
2022/03/30 07:36:10;;;;;;;62.08;35.70;;;;;;;;;;5112835;28;20048;-73
2022/03/30 07:38:37;;;;;;;95.80;45.58;;;;;;;;;;5095053;28;20047;-72
2022/03/30 07:41:04;;;;;;;124.93;62.70;;;;;;;;;;5094455;28;20048;-75
2022/03/30 07:43:31;;;;;;;189.05;82.85;;;;;;;;;;5113066;28;20039;-75
2022/03/30 07:45:58;;;;;;;221.10;95.90;;;;;;;;;;5093808;28;20101;-74
2022/03/30 07:48:25;;;;;;;228.18;101.72;;;;;;;;;;5111983;28;20096;-73
2022/03/30 07:50:52;;;;;;;231.48;99.53;;;;;;;;;;5112172;28;20339;-74
2022/03/30 07:53:18;;;;;;;177.02;79.50;;;;;;;;;;5093835;28;20044;-67
2022/03/30 07:55:47;;;;;;;139.00;65.65;;;;;;;;;;5111788;28;20413;-67
2022/03/30 07:58:14;;;;;;;122.57;55.83;;;;;;;;;;5111880;28;20051;-73
2022/03/30 08:00:42;;;;;;;100.97;46.15;;;;;;;;;;5088511;28;20409;-74
2022/03/30 08:03:09;;;;;;;81.00;41.47;;;;;;;;;;5077358;28;20135;-74
2022/03/30 08:05:36;;;;;;;82.45;43.47;;;;;;;;;;5111776;28;20047;-76
2022/03/30 08:08:06;;;;;;;104.82;53.13;;;;;;;;;;5103983;28;20046;-75
2022/03/30 08:10:33;;;;;;;127.40;58.92;;;;;;;;;;5111969;28;20047;-75
2022/03/30 08:13:00;;;;;;;123.40;61.83;;;;;;;;;;5077376;28;20155;-72
2022/03/30 08:15:27;;;;;;;182.35;82.80;;;;;;;;;;5093857;28;20039;-73
2022/03/30 08:17:55;;;;;;;233.40;105.10;;;;;;;;;;5111320;28;20070;-73
2022/03/30 08:23:10;;;;;;;168.95;77.90;;;;;;;;;;5107479;28;20420;-66
2022/03/30 08:25:38;;;;;;;178.68;84.25;;;;;;;;;;5110634;28;20052;-67
2022/03/30 08:28:05;;;;;;;173.30;78.13;;;;;;;;;;5110758;28;20489;-66
2022/03/30 08:30:32;;;;;;;148.02;70.28;;;;;;;;;;5111363;28;20055;-67
2022/03/30 08:32:58;;;;;;;161.52;73.75;;;;;;;;;;5111032;28;20463;-66
2022/03/30 08:35:25;;;;;;;138.18;65.82;;;;;;;;;;5111037;28;20081;-67
2022/03/30 08:37:52;;;;;;;149.25;70.70;;;;;;;;;;5110775;28;20090;-67
2022/03/30 08:40:19;;;;;;;111.15;52.33;;;;;;;;;;5111328;28;20073;-67
2022/03/30 08:42:46;;;;;;;83.03;39.47;;;;;;;;;;5076202;28;20055;-67
2022/03/30 08:45:17;;;;;;;95.53;45.30;;;;;;;;;;5089421;28;20526;-67
2022/03/30 08:47:44;;;;;;;71.38;33.80;;;;;;;;;;5111731;28;20048;-66
2022/03/30 08:50:11;;;;;;;52.30;26.17;;;;;;;;;;5110364;28;20051;-66
2022/03/30 08:52:38;;;;;;;45.45;25.23;;;;;;;;;;5110516;28;20066;-66
2022/03/30 08:55:05;;;;;;;46.90;24.75;;;;;;;;;;5110707;28;20123;-65
2022/03/30 08:57:31;;;;;;;55.10;26.25;;;;;;;;;;5092911;28;20044;-66
2022/03/30 09:00:07;;;;;;;50.28;24.40;;;;;;;;;;5110937;28;20040;-66
2022/03/30 09:02:55;;;;;;;37.75;22.05;;;;;;;;;;5095747;28;20055;-66
2022/03/30 09:05:24;;;;;;;35.88;16.48;;;;;;;;;;5103272;28;20040;-66
2022/03/30 09:07:56;;;;;;;32.75;17.63;;;;;;;;;;5109140;28;20048;-66
2022/03/30 09:10:30;;;;;;;33.85;16.63;;;;;;;;;;5108966;28;20054;-66
2022/03/30 09:12:56;;;;;;;34.85;15.18;;;;;;;;;;5110776;28;20052;-67
2022/03/30 09:15:25;;;;;;;30.05;15.40;;;;;;;;;;5110530;28;20054;-66
2022/03/30 09:17:58;;;;;;;28.85;16.08;;;;;;;;;;5105384;28;20096;-75
2022/03/30 09:20:33;;;;;;;26.92;14.40;;;;;;;;;;5080651;28;20051;-66
2022/03/30 09:23:00;;;;;;;30.23;14.90;;;;;;;;;;5114262;28;20050;-72
2022/03/30 09:25:48;;;;;;;37.75;16.20;;;;;;;;;;5114493;28;20490;-73
2022/03/30 09:28:19;;;;;;;25.80;14.05;;;;;;;;;;5075485;28;20047;-74
2022/03/30 09:30:47;;;;;;;32.78;15.30;;;;;;;;;;5063235;28;20048;-72
2022/03/30 09:33:17;;;;;;;33.53;16.83;;;;;;;;;;5114204;28;20418;-72
2022/03/30 09:35:44;;;;;;;31.88;15.77;;;;;;;;;;5094019;28;20768;-74
2022/03/30 09:38:13;;;;;;;35.10;16.05;;;;;;;;;;5114783;28;20039;-72
2022/03/30 09:40:47;;;;;;;32.75;14.63;;;;;;;;;;5097178;28;20048;-73
2022/03/30 09:43:25;;;;;;;34.58;14.77;;;;;;;;;;5096565;28;20142;-75
2022/03/30 09:46:05;;;;;;;31.95;16.58;;;;;;;;;;5096489;28;20528;-73
2022/03/30 09:48:43;;;;;;;23.70;14.43;;;;;;;;;;5096740;28;20044;-66
2022/03/30 09:51:10;;;;;;;38.47;15.77;;;;;;;;;;5114293;28;20043;-72
2022/03/30 09:53:37;;;;;;;38.85;16.60;;;;;;;;;;5115224;28;20051;-72
2022/03/30 09:56:07;;;;;;;33.90;15.07;;;;;;;;;;5114837;28;20057;-72
2022/03/30 09:58:35;;;;;;;32.20;15.25;;;;;;;;;;5114050;28;20100;-72
2022/03/30 10:01:09;;;;;;;32.08;15.15;;;;;;;;;;5114084;28;20043;-72
2022/03/30 10:03:37;;;;;;;33.30;16.08;;;;;;;;;;5114100;28;20418;-73
2022/03/30 10:06:04;;;;;;;38.13;16.45;;;;;;;;;;5114267;28;20456;-66
2022/03/30 10:08:31;;;;;;;31.02;15.82;;;;;;;;;;5113881;28;20547;-66
2022/03/30 10:10:58;;;;;;;32.25;14.88;;;;;;;;;;5096439;28;20549;-74
2022/03/30 10:13:25;;;;;;;31.90;15.05;;;;;;;;;;5074282;27;20051;-71
2022/03/30 10:15:52;;;;;;;25.70;13.68;;;;;;;;;;5101048;28;20052;-66
2022/03/30 10:18:19;;;;;;;29.83;15.38;;;;;;;;;;5082889;28;20048;-73
2022/03/30 10:20:51;;;;;;;41.13;16.20;;;;;;;;;;5083710;28;20050;-72
2022/03/30 10:23:58;;;;;;;31.83;13.60;;;;;;;;;;5082337;28;20040;-65
2022/03/30 10:26:33;;;;;;;35.40;14.60;;;;;;;;;;5080863;28;20375;-72
2022/03/30 10:29:04;;;;;;;30.90;12.90;;;;;;;;;;5080155;28;20399;-65
2022/03/30 10:31:31;;;;;;;26.88;12.90;;;;;;;;;;5085436;28;20048;-65
2022/03/30 10:34:03;;;;;;;27.27;14.00;;;;;;;;;;5063815;28;20059;-70
2022/03/30 10:36:33;;;;;;;28.77;12.02;;;;;;;;;;5079354;28;20043;-65
2022/03/30 10:39:16;;;;;;;26.27;13.73;;;;;;;;;;5096495;28;20126;-66
2022/03/30 10:42:09;;;;;;;32.45;12.68;;;;;;;;;;5082929;28;20043;-66
2022/03/30 10:44:49;;;;;;;24.50;10.05;;;;;;;;;;5096008;28;20325;-66
2022/03/30 10:47:18;;;;;;;22.15;11.30;;;;;;;;;;5100014;28;20047;-66
2022/03/30 10:49:51;;;;;;;26.55;13.13;;;;;;;;;;5098026;28;20047;-64
2022/03/30 10:52:25;;;;;;;22.85;10.48;;;;;;;;;;5096428;28;20047;-66
2022/03/30 10:55:04;;;;;;;25.55;9.55;;;;;;;;;;5097403;28;20055;-67
2022/03/30 10:58:01;;;;;;;21.05;11.25;;;;;;;;;;5064586;28;20062;-66
2022/03/30 11:00:29;;;;;;;20.50;9.70;;;;;;;;;;5098733;28;20047;-66
2022/03/30 11:03:16;;;;;;;23.02;10.18;;;;;;;;;;5097857;28;20642;-65
2022/03/30 11:05:44;;;;;;;15.43;8.68;;;;;;;;;;5095594;28;20051;-65
2022/03/30 11:08:33;;;;;;;16.85;7.65;;;;;;;;;;5097146;28;20048;-66
2022/03/30 11:11:03;;;;;;;24.25;9.40;;;;;;;;;;5095332;28;20053;-66
2022/03/30 11:13:30;;;;;;;23.27;8.20;;;;;;;;;;5094877;28;20476;-65
2022/03/30 11:15:56;;;;;;;25.60;8.73;;;;;;;;;;5102125;28;20043;-66
2022/03/30 11:18:23;;;;;;;18.65;8.68;;;;;;;;;;5098548;28;20031;-65
2022/03/30 11:21:08;;;;;;;20.33;8.45;;;;;;;;;;5099066;28;20611;-66
2022/03/30 11:23:36;;;;;;;19.17;8.55;;;;;;;;;;5096012;28;20055;-66
2022/03/30 11:26:03;;;;;;;14.88;7.38;;;;;;;;;;5094653;28;20074;-66
2022/03/30 11:28:38;;;;;;;24.40;9.52;;;;;;;;;;5099840;28;20406;-65
2022/03/30 11:31:18;;;;;;;20.50;9.10;;;;;;;;;;5095882;28;20048;-64
2022/03/30 11:34:28;;;;;;;17.55;8.75;;;;;;;;;;5080541;28;20062;-64
2022/03/30 11:36:54;;;;;;;19.75;7.55;;;;;;;;;;5077058;28;20477;-67
2022/03/30 11:39:25;;;;;;;19.48;8.13;;;;;;;;;;5095376;28;20040;-65
2022/03/30 11:41:56;;;;;;;17.75;8.35;;;;;;;;;;5062093;28;20048;-67
2022/03/30 11:47:14;;;;;;;18.90;10.43;;;;;;;;;;5095752;28;20043;-66
2022/03/30 11:49:51;;;;;;;20.75;10.60;;;;;;;;;;5081103;28;20044;-67
2022/03/30 11:52:22;;;;;;;24.60;10.00;;;;;;;;;;5096876;28;20064;-67
2022/03/30 11:54:56;;;;;;;23.63;9.88;;;;;;;;;;5100468;28;20047;-65
2022/03/30 11:57:23;;;;;;;37.15;12.40;;;;;;;;;;5084710;28;20052;-66
2022/03/30 12:00:03;;;;;;;19.13;12.35;;;;;;;;;;5097065;28;20094;-66
2022/03/30 12:02:30;;;;;;;25.70;13.15;;;;;;;;;;5097739;28;20089;-66
2022/03/30 12:04:57;;;;;;;26.00;10.95;;;;;;;;;;5096740;28;20564;-64
2022/03/30 12:07:24;;;;;;;17.67;10.40;;;;;;;;;;5098430;28;20044;-65
2022/03/30 12:10:02;;;;;;;26.02;11.48;;;;;;;;;;5099312;28;20113;-63
2022/03/30 12:12:36;;;;;;;21.10;11.40;;;;;;;;;;5098228;28;20044;-64
2022/03/30 12:15:11;;;;;;;20.58;10.13;;;;;;;;;;5099988;28;20044;-64
2022/03/30 12:17:39;;;;;;;19.10;13.85;;;;;;;;;;5098730;28;20098;-64
2022/03/30 12:20:07;;;;;;;26.20;10.05;;;;;;;;;;5094892;28;20494;-65
2022/03/30 12:22:35;;;;;;;19.33;11.32;;;;;;;;;;5097053;28;20055;-64
2022/03/30 12:25:03;;;;;;;20.30;11.20;;;;;;;;;;5097880;28;20052;-64
2022/03/30 12:27:30;;;;;;;19.35;11.02;;;;;;;;;;5097752;28;20054;-64
2022/03/30 12:29:57;;;;;;;17.35;9.52;;;;;;;;;;5072358;28;20036;-65
2022/03/30 12:32:24;;;;;;;21.73;10.68;;;;;;;;;;5067327;28;20040;-64
2022/03/30 12:35:07;;;;;;;21.70;11.93;;;;;;;;;;5076254;28;20044;-65
2022/03/30 12:37:34;;;;;;;29.88;13.48;;;;;;;;;;5097143;28;20067;-64
2022/03/30 12:40:09;;;;;;;20.33;11.98;;;;;;;;;;5097935;28;20046;-65
2022/03/30 12:42:36;;;;;;;29.70;13.75;;;;;;;;;;5096414;28;20056;-64
2022/03/30 12:45:08;;;;;;;25.17;12.68;;;;;;;;;;5095596;28;20040;-65
2022/03/30 12:47:38;;;;;;;23.42;10.65;;;;;;;;;;5096307;28;20539;-65
2022/03/30 12:50:13;;;;;;;22.15;11.57;;;;;;;;;;5096801;28;20048;-65
2022/03/30 12:52:42;;;;;;;20.58;11.18;;;;;;;;;;5102223;28;20113;-64
2022/03/30 12:55:13;;;;;;;15.57;11.25;;;;;;;;;;5100149;28;20465;-65
2022/03/30 12:57:52;;;;;;;14.18;10.25;;;;;;;;;;5101689;28;20052;-65
2022/03/30 13:00:26;;;;;;;11.68;10.35;;;;;;;;;;5101556;28;20100;-65
2022/03/30 13:03:24;;;;;;;11.93;9.35;;;;;;;;;;5082598;28;20464;-66
2022/03/30 13:06:19;;;;;;;11.40;8.52;;;;;;;;;;5079177;28;20044;-65
2022/03/30 13:09:06;;;;;;;10.18;9.13;;;;;;;;;;5102133;28;20483;-66
2022/03/30 13:11:41;;;;;;;9.80;8.77;;;;;;;;;;5081931;28;20109;-66
2022/03/30 13:14:14;;;;;;;11.48;7.85;;;;;;;;;;5102979;28;20047;-66
2022/03/30 13:16:41;;;;;;;8.90;7.78;;;;;;;;;;5100693;28;20073;-66
2022/03/30 13:19:11;;;;;;;9.15;7.43;;;;;;;;;;5102079;28;20043;-66
2022/03/30 13:21:44;;;;;;;9.05;7.65;;;;;;;;;;5108442;22;20143;-66
2022/03/30 13:24:13;;;;;;;9.40;7.90;;;;;;;;;;5078967;28;20048;-66
2022/03/30 13:26:41;;;;;;;7.95;6.78;;;;;;;;;;5081027;28;20572;-66
2022/03/30 13:29:08;;;;;;;8.60;7.07;;;;;;;;;;5079296;28;20071;-68
2022/03/30 13:31:36;;;;;;;8.10;7.25;;;;;;;;;;5064080;28;20056;-67
2022/03/30 13:34:07;;;;;;;8.30;6.72;;;;;;;;;;5059592;28;20411;-66
2022/03/30 13:36:34;;;;;;;7.60;6.68;;;;;;;;;;5059871;28;20056;-67
2022/03/30 13:39:01;;;;;;;8.25;6.43;;;;;;;;;;5063115;28;20452;-67
2022/03/30 13:41:28;;;;;;;9.30;7.63;;;;;;;;;;5055939;28;20122;-66
2022/03/30 13:43:54;;;;;;;8.25;7.43;;;;;;;;;;5060753;28;20052;-66
2022/03/30 13:46:21;;;;;;;10.13;6.97;;;;;;;;;;5056663;28;20053;-67
2022/03/30 13:48:48;;;;;;;7.03;6.32;;;;;;;;;;5057357;28;20388;-66
2022/03/30 13:51:19;;;;;;;9.07;7.60;;;;;;;;;;5056736;28;20140;-65
2022/03/30 13:53:46;;;;;;;8.43;7.53;;;;;;;;;;5057782;28;20049;-65
2022/03/30 13:56:13;;;;;;;10.15;7.40;;;;;;;;;;5056445;28;20126;-66
2022/03/30 13:58:40;;;;;;;10.02;8.15;;;;;;;;;;5058934;28;20052;-66
2022/03/30 14:01:07;;;;;;;8.95;7.80;;;;;;;;;;5056940;28;20049;-66
2022/03/30 14:03:35;;;;;;;10.15;8.38;;;;;;;;;;5056944;28;20052;-66
2022/03/30 14:06:02;;;;;;;10.05;8.90;;;;;;;;;;5056592;28;20045;-67
2022/03/30 14:08:28;;;;;;;9.23;8.23;;;;;;;;;;5059889;28;20500;-67
2022/03/30 14:10:55;;;;;;;10.27;9.18;;;;;;;;;;5057765;28;20041;-66
2022/03/30 14:13:22;;;;;;;12.13;9.20;;;;;;;;;;5056752;28;20075;-64
2022/03/30 14:15:50;;;;;;;10.50;8.90;;;;;;;;;;5058607;28;20095;-66
2022/03/30 14:18:17;;;;;;;11.52;9.00;;;;;;;;;;5056216;28;20059;-66
2022/03/30 14:20:44;;;;;;;11.25;9.32;;;;;;;;;;5060060;28;20454;-65
2022/03/30 14:23:11;;;;;;;12.68;9.65;;;;;;;;;;5056754;28;20049;-65
2022/03/30 14:25:39;;;;;;;10.15;8.98;;;;;;;;;;5058187;28;20055;-65
2022/03/30 14:28:08;;;;;;;12.23;9.30;;;;;;;;;;5056206;28;20049;-67
2022/03/30 14:30:36;;;;;;;15.00;9.68;;;;;;;;;;5060781;28;20086;-66
2022/03/30 14:33:04;;;;;;;11.55;9.55;;;;;;;;;;5056733;28;20061;-65
2022/03/30 14:35:33;;;;;;;11.25;9.48;;;;;;;;;;5057318;28;20048;-66
2022/03/30 14:38:05;;;;;;;12.32;10.27;;;;;;;;;;5058024;28;20052;-66
2022/03/30 14:40:31;;;;;;;12.57;9.73;;;;;;;;;;5056692;28;20048;-66
2022/03/30 14:42:58;;;;;;;13.43;10.18;;;;;;;;;;5057645;28;20067;-67